sensor_id;sensor_type;location;lat;lon;timestamp;P1;durP1;ratioP1;P2;durP2;ratioP2
55423;SDS011;41294;42.666;23.350;2024-03-06T00:01:39;26.57;;;20.03;;
55423;SDS011;41294;42.666;23.350;2024-03-06T00:04:04;23.13;;;18.27;;
55423;SDS011;41294;42.666;23.350;2024-03-06T00:06:30;24.23;;;18.60;;
55423;SDS011;41294;42.666;23.350;2024-03-06T00:08:55;25.57;;;17.80;;
55423;SDS011;41294;42.666;23.350;2024-03-06T00:11:21;24.43;;;18.00;;
55423;SDS011;41294;42.666;23.350;2024-03-06T00:13:46;26.93;;;18.37;;
55423;SDS011;41294;42.666;23.350;2024-03-06T00:16:13;23.37;;;17.77;;
55423;SDS011;41294;42.666;23.350;2024-03-06T00:18:38;26.63;;;18.27;;
55423;SDS011;41294;42.666;23.350;2024-03-06T00:21:05;22.70;;;16.80;;
55423;SDS011;41294;42.666;23.350;2024-03-06T00:23:31;23.27;;;16.77;;
55423;SDS011;41294;42.666;23.350;2024-03-06T00:25:57;20.70;;;16.10;;
55423;SDS011;41294;42.666;23.350;2024-03-06T00:28:22;22.23;;;17.13;;
55423;SDS011;41294;42.666;23.350;2024-03-06T00:30:49;25.60;;;16.73;;
55423;SDS011;41294;42.666;23.350;2024-03-06T00:33:14;24.93;;;18.27;;
55423;SDS011;41294;42.666;23.350;2024-03-06T00:35:40;23.43;;;16.53;;
55423;SDS011;41294;42.666;23.350;2024-03-06T00:38:05;24.77;;;17.60;;
55423;SDS011;41294;42.666;23.350;2024-03-06T00:40:31;23.17;;;17.57;;
55423;SDS011;41294;42.666;23.350;2024-03-06T00:42:57;22.93;;;17.20;;
55423;SDS011;41294;42.666;23.350;2024-03-06T00:45:23;25.40;;;17.67;;
55423;SDS011;41294;42.666;23.350;2024-03-06T00:47:49;28.20;;;18.47;;
55423;SDS011;41294;42.666;23.350;2024-03-06T00:50:15;25.60;;;17.93;;
55423;SDS011;41294;42.666;23.350;2024-03-06T00:52:42;23.67;;;17.50;;
55423;SDS011;41294;42.666;23.350;2024-03-06T00:55:08;25.70;;;17.53;;
55423;SDS011;41294;42.666;23.350;2024-03-06T00:57:35;25.63;;;17.53;;
55423;SDS011;41294;42.666;23.350;2024-03-06T01:00:01;25.27;;;17.93;;
55423;SDS011;41294;42.666;23.350;2024-03-06T01:02:31;24.23;;;16.40;;
55423;SDS011;41294;42.666;23.350;2024-03-06T01:04:56;23.10;;;16.73;;
55423;SDS011;41294;42.666;23.350;2024-03-06T01:07:22;23.47;;;17.00;;
55423;SDS011;41294;42.666;23.350;2024-03-06T01:09:47;24.13;;;16.93;;
55423;SDS011;41294;42.666;23.350;2024-03-06T01:12:13;22.20;;;16.47;;
55423;SDS011;41294;42.666;23.350;2024-03-06T01:14:38;22.00;;;17.10;;
55423;SDS011;41294;42.666;23.350;2024-03-06T01:17:04;20.97;;;16.17;;
55423;SDS011;41294;42.666;23.350;2024-03-06T01:19:30;25.07;;;17.13;;
55423;SDS011;41294;42.666;23.350;2024-03-06T01:21:55;22.83;;;17.20;;
55423;SDS011;41294;42.666;23.350;2024-03-06T01:24:21;23.17;;;16.70;;
55423;SDS011;41294;42.666;23.350;2024-03-06T01:26:46;21.97;;;17.97;;
55423;SDS011;41294;42.666;23.350;2024-03-06T01:29:12;25.57;;;17.57;;
55423;SDS011;41294;42.666;23.350;2024-03-06T01:31:37;26.43;;;19.03;;
55423;SDS011;41294;42.666;23.350;2024-03-06T01:34:03;24.10;;;17.60;;
55423;SDS011;41294;42.666;23.350;2024-03-06T01:36:28;23.43;;;16.63;;
55423;SDS011;41294;42.666;23.350;2024-03-06T01:38:54;27.53;;;18.33;;
55423;SDS011;41294;42.666;23.350;2024-03-06T01:41:19;24.53;;;17.60;;
55423;SDS011;41294;42.666;23.350;2024-03-06T01:43:45;25.03;;;18.03;;
55423;SDS011;41294;42.666;23.350;2024-03-06T01:46:12;24.47;;;17.93;;
55423;SDS011;41294;42.666;23.350;2024-03-06T01:48:37;24.43;;;18.13;;
55423;SDS011;41294;42.666;23.350;2024-03-06T01:51:03;25.43;;;18.57;;
55423;SDS011;41294;42.666;23.350;2024-03-06T01:53:30;24.87;;;18.73;;
55423;SDS011;41294;42.666;23.350;2024-03-06T01:55:57;27.17;;;18.60;;
55423;SDS011;41294;42.666;23.350;2024-03-06T01:58:23;24.30;;;17.20;;
55423;SDS011;41294;42.666;23.350;2024-03-06T02:00:49;26.07;;;18.47;;
55423;SDS011;41294;42.666;23.350;2024-03-06T02:03:15;28.60;;;19.13;;
55423;SDS011;41294;42.666;23.350;2024-03-06T02:05:44;24.43;;;18.20;;
55423;SDS011;41294;42.666;23.350;2024-03-06T02:08:10;25.37;;;18.10;;
55423;SDS011;41294;42.666;23.350;2024-03-06T02:10:35;24.40;;;17.03;;
55423;SDS011;41294;42.666;23.350;2024-03-06T02:13:01;25.33;;;17.83;;
55423;SDS011;41294;42.666;23.350;2024-03-06T02:15:26;25.07;;;18.93;;
55423;SDS011;41294;42.666;23.350;2024-03-06T02:17:52;23.07;;;17.30;;
55423;SDS011;41294;42.666;23.350;2024-03-06T02:20:24;22.90;;;17.03;;
55423;SDS011;41294;42.666;23.350;2024-03-06T02:22:50;23.53;;;17.23;;
55423;SDS011;41294;42.666;23.350;2024-03-06T02:25:15;25.43;;;18.17;;
55423;SDS011;41294;42.666;23.350;2024-03-06T02:27:42;26.00;;;18.27;;
55423;SDS011;41294;42.666;23.350;2024-03-06T02:30:08;29.43;;;19.87;;
55423;SDS011;41294;42.666;23.350;2024-03-06T02:32:34;29.17;;;19.87;;
55423;SDS011;41294;42.666;23.350;2024-03-06T02:35:03;29.70;;;20.27;;
55423;SDS011;41294;42.666;23.350;2024-03-06T02:37:33;30.57;;;19.70;;
55423;SDS011;41294;42.666;23.350;2024-03-06T02:39:59;31.60;;;21.60;;
55423;SDS011;41294;42.666;23.350;2024-03-06T02:42:25;30.67;;;21.03;;
55423;SDS011;41294;42.666;23.350;2024-03-06T02:44:52;30.30;;;20.57;;
55423;SDS011;41294;42.666;23.350;2024-03-06T02:47:18;27.77;;;19.67;;
55423;SDS011;41294;42.666;23.350;2024-03-06T02:49:44;28.77;;;20.07;;
55423;SDS011;41294;42.666;23.350;2024-03-06T02:52:10;26.77;;;18.97;;
55423;SDS011;41294;42.666;23.350;2024-03-06T02:54:35;28.97;;;20.70;;
55423;SDS011;41294;42.666;23.350;2024-03-06T02:57:01;29.67;;;20.20;;
55423;SDS011;41294;42.666;23.350;2024-03-06T02:59:26;29.10;;;20.53;;
55423;SDS011;41294;42.666;23.350;2024-03-06T03:01:52;27.03;;;18.83;;
55423;SDS011;41294;42.666;23.350;2024-03-06T03:04:18;28.33;;;20.33;;
55423;SDS011;41294;42.666;23.350;2024-03-06T03:06:43;28.70;;;19.83;;
55423;SDS011;41294;42.666;23.350;2024-03-06T03:09:09;28.40;;;19.17;;
55423;SDS011;41294;42.666;23.350;2024-03-06T03:11:37;27.10;;;19.17;;
55423;SDS011;41294;42.666;23.350;2024-03-06T03:14:02;27.40;;;19.63;;
55423;SDS011;41294;42.666;23.350;2024-03-06T03:16:28;25.73;;;18.47;;
55423;SDS011;41294;42.666;23.350;2024-03-06T03:18:54;28.40;;;18.40;;
55423;SDS011;41294;42.666;23.350;2024-03-06T03:21:22;25.93;;;18.30;;
55423;SDS011;41294;42.666;23.350;2024-03-06T03:23:48;23.47;;;17.03;;
55423;SDS011;41294;42.666;23.350;2024-03-06T03:26:14;24.20;;;18.00;;
55423;SDS011;41294;42.666;23.350;2024-03-06T03:28:40;26.73;;;19.20;;
55423;SDS011;41294;42.666;23.350;2024-03-06T03:31:08;24.93;;;17.67;;
55423;SDS011;41294;42.666;23.350;2024-03-06T03:33:44;25.87;;;18.43;;
55423;SDS011;41294;42.666;23.350;2024-03-06T03:36:09;24.20;;;17.63;;
55423;SDS011;41294;42.666;23.350;2024-03-06T03:38:35;27.10;;;17.97;;
55423;SDS011;41294;42.666;23.350;2024-03-06T03:41:06;28.00;;;17.93;;
55423;SDS011;41294;42.666;23.350;2024-03-06T03:43:33;22.83;;;18.13;;
55423;SDS011;41294;42.666;23.350;2024-03-06T03:45:58;28.77;;;21.40;;
55423;SDS011;41294;42.666;23.350;2024-03-06T03:48:24;27.70;;;19.17;;
55423;SDS011;41294;42.666;23.350;2024-03-06T03:50:50;27.40;;;18.97;;
55423;SDS011;41294;42.666;23.350;2024-03-06T03:53:15;24.00;;;18.23;;
55423;SDS011;41294;42.666;23.350;2024-03-06T03:55:41;26.80;;;18.33;;
55423;SDS011;41294;42.666;23.350;2024-03-06T03:58:06;30.40;;;18.07;;
55423;SDS011;41294;42.666;23.350;2024-03-06T04:00:32;27.20;;;18.97;;
55423;SDS011;41294;42.666;23.350;2024-03-06T04:02:58;25.37;;;17.90;;
55423;SDS011;41294;42.666;23.350;2024-03-06T04:05:24;27.17;;;18.50;;
55423;SDS011;41294;42.666;23.350;2024-03-06T04:07:50;23.47;;;17.37;;
55423;SDS011;41294;42.666;23.350;2024-03-06T04:10:16;24.70;;;17.53;;
55423;SDS011;41294;42.666;23.350;2024-03-06T04:12:41;26.47;;;17.40;;
55423;SDS011;41294;42.666;23.350;2024-03-06T04:15:07;22.13;;;17.03;;
55423;SDS011;41294;42.666;23.350;2024-03-06T04:17:34;27.67;;;18.57;;
55423;SDS011;41294;42.666;23.350;2024-03-06T04:20:01;27.13;;;18.17;;
55423;SDS011;41294;42.666;23.350;2024-03-06T04:22:28;30.17;;;18.20;;
55423;SDS011;41294;42.666;23.350;2024-03-06T04:24:54;24.77;;;18.30;;
55423;SDS011;41294;42.666;23.350;2024-03-06T04:27:20;25.20;;;18.10;;
55423;SDS011;41294;42.666;23.350;2024-03-06T04:29:46;26.00;;;18.30;;
55423;SDS011;41294;42.666;23.350;2024-03-06T04:32:12;25.23;;;18.10;;
55423;SDS011;41294;42.666;23.350;2024-03-06T04:34:37;26.33;;;17.37;;
55423;SDS011;41294;42.666;23.350;2024-03-06T04:37:03;24.63;;;17.47;;
55423;SDS011;41294;42.666;23.350;2024-03-06T04:39:28;28.83;;;18.23;;
55423;SDS011;41294;42.666;23.350;2024-03-06T04:41:53;27.23;;;17.43;;
55423;SDS011;41294;42.666;23.350;2024-03-06T04:44:19;23.37;;;17.67;;
55423;SDS011;41294;42.666;23.350;2024-03-06T04:46:44;23.80;;;17.63;;
55423;SDS011;41294;42.666;23.350;2024-03-06T04:49:10;27.73;;;17.87;;
55423;SDS011;41294;42.666;23.350;2024-03-06T04:51:35;27.13;;;18.50;;
55423;SDS011;41294;42.666;23.350;2024-03-06T04:54:01;28.23;;;19.30;;
55423;SDS011;41294;42.666;23.350;2024-03-06T04:56:26;26.00;;;19.27;;
55423;SDS011;41294;42.666;23.350;2024-03-06T04:58:52;26.20;;;18.60;;
55423;SDS011;41294;42.666;23.350;2024-03-06T05:01:17;26.80;;;18.33;;
55423;SDS011;41294;42.666;23.350;2024-03-06T05:03:43;29.60;;;18.90;;
55423;SDS011;41294;42.666;23.350;2024-03-06T05:06:08;27.23;;;17.83;;
55423;SDS011;41294;42.666;23.350;2024-03-06T05:08:34;27.17;;;18.70;;
55423;SDS011;41294;42.666;23.350;2024-03-06T05:11:00;26.20;;;17.50;;
55423;SDS011;41294;42.666;23.350;2024-03-06T05:13:27;27.30;;;17.63;;
55423;SDS011;41294;42.666;23.350;2024-03-06T05:15:52;28.93;;;18.60;;
55423;SDS011;41294;42.666;23.350;2024-03-06T05:18:19;26.53;;;19.33;;
55423;SDS011;41294;42.666;23.350;2024-03-06T05:20:45;35.30;;;19.33;;
55423;SDS011;41294;42.666;23.350;2024-03-06T05:23:11;26.30;;;18.30;;
55423;SDS011;41294;42.666;23.350;2024-03-06T05:25:37;26.43;;;18.30;;
55423;SDS011;41294;42.666;23.350;2024-03-06T05:28:03;28.97;;;19.60;;
55423;SDS011;41294;42.666;23.350;2024-03-06T05:30:30;28.77;;;18.47;;
55423;SDS011;41294;42.666;23.350;2024-03-06T05:32:55;26.47;;;18.23;;
55423;SDS011;41294;42.666;23.350;2024-03-06T05:35:21;25.53;;;18.77;;
55423;SDS011;41294;42.666;23.350;2024-03-06T05:37:46;34.10;;;23.37;;
55423;SDS011;41294;42.666;23.350;2024-03-06T05:40:12;31.90;;;20.00;;
55423;SDS011;41294;42.666;23.350;2024-03-06T05:42:38;30.10;;;18.67;;
55423;SDS011;41294;42.666;23.350;2024-03-06T05:45:03;29.43;;;18.73;;
55423;SDS011;41294;42.666;23.350;2024-03-06T05:47:38;26.50;;;19.13;;
55423;SDS011;41294;42.666;23.350;2024-03-06T05:50:07;30.40;;;19.03;;
55423;SDS011;41294;42.666;23.350;2024-03-06T05:52:33;23.20;;;18.23;;
55423;SDS011;41294;42.666;23.350;2024-03-06T05:54:59;28.07;;;18.27;;
55423;SDS011;41294;42.666;23.350;2024-03-06T05:57:24;26.40;;;19.00;;
55423;SDS011;41294;42.666;23.350;2024-03-06T05:59:50;30.80;;;20.93;;
55423;SDS011;41294;42.666;23.350;2024-03-06T06:02:16;30.97;;;20.47;;
55423;SDS011;41294;42.666;23.350;2024-03-06T06:04:41;28.63;;;20.67;;
55423;SDS011;41294;42.666;23.350;2024-03-06T06:07:07;30.97;;;20.27;;
55423;SDS011;41294;42.666;23.350;2024-03-06T06:09:33;29.03;;;19.23;;
55423;SDS011;41294;42.666;23.350;2024-03-06T06:11:58;26.57;;;20.03;;
55423;SDS011;41294;42.666;23.350;2024-03-06T06:14:24;26.93;;;19.97;;
55423;SDS011;41294;42.666;23.350;2024-03-06T06:16:52;29.57;;;19.53;;
55423;SDS011;41294;42.666;23.350;2024-03-06T06:19:17;27.70;;;20.70;;
55423;SDS011;41294;42.666;23.350;2024-03-06T06:21:43;30.00;;;20.87;;
55423;SDS011;41294;42.666;23.350;2024-03-06T06:24:08;29.00;;;20.57;;
55423;SDS011;41294;42.666;23.350;2024-03-06T06:26:34;33.53;;;20.77;;
55423;SDS011;41294;42.666;23.350;2024-03-06T06:29:00;26.47;;;19.80;;
55423;SDS011;41294;42.666;23.350;2024-03-06T06:31:26;30.47;;;20.70;;
55423;SDS011;41294;42.666;23.350;2024-03-06T06:33:52;37.63;;;24.63;;
55423;SDS011;41294;42.666;23.350;2024-03-06T06:36:18;29.17;;;21.03;;
55423;SDS011;41294;42.666;23.350;2024-03-06T06:38:45;33.57;;;23.60;;
55423;SDS011;41294;42.666;23.350;2024-03-06T06:41:11;31.73;;;22.70;;
55423;SDS011;41294;42.666;23.350;2024-03-06T06:43:36;36.17;;;24.13;;
55423;SDS011;41294;42.666;23.350;2024-03-06T06:46:02;33.53;;;23.03;;
55423;SDS011;41294;42.666;23.350;2024-03-06T06:48:30;35.67;;;23.80;;
55423;SDS011;41294;42.666;23.350;2024-03-06T06:50:55;33.60;;;24.20;;
55423;SDS011;41294;42.666;23.350;2024-03-06T06:53:21;33.77;;;24.43;;
55423;SDS011;41294;42.666;23.350;2024-03-06T06:55:47;35.70;;;24.43;;
55423;SDS011;41294;42.666;23.350;2024-03-06T06:58:12;31.87;;;24.10;;
55423;SDS011;41294;42.666;23.350;2024-03-06T07:00:37;35.13;;;25.23;;
55423;SDS011;41294;42.666;23.350;2024-03-06T07:03:03;35.30;;;24.20;;
55423;SDS011;41294;42.666;23.350;2024-03-06T07:05:29;32.87;;;23.93;;
55423;SDS011;41294;42.666;23.350;2024-03-06T07:07:54;33.53;;;24.50;;
55423;SDS011;41294;42.666;23.350;2024-03-06T07:10:20;35.53;;;23.90;;
55423;SDS011;41294;42.666;23.350;2024-03-06T07:12:46;36.43;;;25.63;;
55423;SDS011;41294;42.666;23.350;2024-03-06T07:15:12;33.83;;;24.50;;
55423;SDS011;41294;42.666;23.350;2024-03-06T07:17:37;36.67;;;23.47;;
55423;SDS011;41294;42.666;23.350;2024-03-06T07:20:03;31.53;;;22.03;;
55423;SDS011;41294;42.666;23.350;2024-03-06T07:22:30;33.67;;;23.23;;
55423;SDS011;41294;42.666;23.350;2024-03-06T07:24:56;32.17;;;22.33;;
55423;SDS011;41294;42.666;23.350;2024-03-06T07:27:21;27.67;;;21.73;;
55423;SDS011;41294;42.666;23.350;2024-03-06T07:29:47;33.47;;;22.87;;
55423;SDS011;41294;42.666;23.350;2024-03-06T07:32:12;31.43;;;22.47;;
55423;SDS011;41294;42.666;23.350;2024-03-06T07:34:38;30.13;;;22.50;;
55423;SDS011;41294;42.666;23.350;2024-03-06T07:37:03;31.47;;;23.30;;
55423;SDS011;41294;42.666;23.350;2024-03-06T07:39:29;31.47;;;23.23;;
55423;SDS011;41294;42.666;23.350;2024-03-06T07:41:56;31.57;;;21.97;;
55423;SDS011;41294;42.666;23.350;2024-03-06T07:44:22;29.23;;;21.50;;
55423;SDS011;41294;42.666;23.350;2024-03-06T07:46:47;29.90;;;22.50;;
55423;SDS011;41294;42.666;23.350;2024-03-06T07:49:13;33.20;;;23.47;;
55423;SDS011;41294;42.666;23.350;2024-03-06T07:51:39;29.70;;;21.03;;
55423;SDS011;41294;42.666;23.350;2024-03-06T07:54:07;32.03;;;23.07;;
55423;SDS011;41294;42.666;23.350;2024-03-06T07:56:33;32.37;;;24.00;;
55423;SDS011;41294;42.666;23.350;2024-03-06T07:58:59;34.03;;;25.47;;
55423;SDS011;41294;42.666;23.350;2024-03-06T08:01:25;30.47;;;23.27;;
55423;SDS011;41294;42.666;23.350;2024-03-06T08:03:53;30.47;;;23.23;;
55423;SDS011;41294;42.666;23.350;2024-03-06T08:06:20;32.50;;;22.60;;
55423;SDS011;41294;42.666;23.350;2024-03-06T08:08:46;32.23;;;22.47;;
55423;SDS011;41294;42.666;23.350;2024-03-06T08:11:13;30.27;;;23.40;;
55423;SDS011;41294;42.666;23.350;2024-03-06T08:13:39;34.50;;;23.77;;
55423;SDS011;41294;42.666;23.350;2024-03-06T08:16:05;30.23;;;22.23;;
55423;SDS011;41294;42.666;23.350;2024-03-06T08:18:32;33.10;;;23.20;;
55423;SDS011;41294;42.666;23.350;2024-03-06T08:20:58;34.80;;;22.47;;
55423;SDS011;41294;42.666;23.350;2024-03-06T08:23:23;29.57;;;23.23;;
55423;SDS011;41294;42.666;23.350;2024-03-06T08:25:50;31.67;;;22.97;;
55423;SDS011;41294;42.666;23.350;2024-03-06T08:28:16;25.67;;;21.13;;
55423;SDS011;41294;42.666;23.350;2024-03-06T08:30:41;32.47;;;23.07;;
55423;SDS011;41294;42.666;23.350;2024-03-06T08:33:09;27.60;;;21.07;;
55423;SDS011;41294;42.666;23.350;2024-03-06T08:35:34;31.73;;;22.20;;
55423;SDS011;41294;42.666;23.350;2024-03-06T08:38:00;29.40;;;22.10;;
55423;SDS011;41294;42.666;23.350;2024-03-06T08:40:25;28.77;;;21.37;;
55423;SDS011;41294;42.666;23.350;2024-03-06T08:42:53;39.37;;;21.40;;
55423;SDS011;41294;42.666;23.350;2024-03-06T08:45:19;31.60;;;21.13;;
55423;SDS011;41294;42.666;23.350;2024-03-06T08:47:45;24.37;;;19.17;;
55423;SDS011;41294;42.666;23.350;2024-03-06T08:50:11;26.47;;;19.97;;
55423;SDS011;41294;42.666;23.350;2024-03-06T08:52:37;25.88;;;19.55;;
55423;SDS011;41294;42.666;23.350;2024-03-06T08:55:06;28.30;;;20.13;;
55423;SDS011;41294;42.666;23.350;2024-03-06T08:57:36;25.00;;;18.48;;
55423;SDS011;41294;42.666;23.350;2024-03-06T09:00:02;21.95;;;16.83;;
55423;SDS011;41294;42.666;23.350;2024-03-06T09:02:29;21.33;;;16.92;;
55423;SDS011;41294;42.666;23.350;2024-03-06T09:04:54;19.70;;;17.55;;
55423;SDS011;41294;42.666;23.350;2024-03-06T09:07:20;18.92;;;16.90;;
55423;SDS011;41294;42.666;23.350;2024-03-06T09:09:49;20.67;;;17.45;;
55423;SDS011;41294;42.666;23.350;2024-03-06T09:12:16;24.08;;;17.17;;
55423;SDS011;41294;42.666;23.350;2024-03-06T09:14:43;23.55;;;17.63;;
55423;SDS011;41294;42.666;23.350;2024-03-06T09:17:10;24.33;;;18.00;;
55423;SDS011;41294;42.666;23.350;2024-03-06T09:19:39;22.42;;;17.15;;
55423;SDS011;41294;42.666;23.350;2024-03-06T09:22:05;19.20;;;15.40;;
55423;SDS011;41294;42.666;23.350;2024-03-06T09:24:30;20.53;;;15.47;;
55423;SDS011;41294;42.666;23.350;2024-03-06T09:26:56;17.90;;;15.33;;
55423;SDS011;41294;42.666;23.350;2024-03-06T09:29:21;18.88;;;13.80;;
55423;SDS011;41294;42.666;23.350;2024-03-06T09:31:47;18.30;;;12.88;;
55423;SDS011;41294;42.666;23.350;2024-03-06T09:34:13;16.42;;;13.23;;
55423;SDS011;41294;42.666;23.350;2024-03-06T09:36:40;15.18;;;13.18;;
55423;SDS011;41294;42.666;23.350;2024-03-06T09:39:10;17.38;;;12.45;;
55423;SDS011;41294;42.666;23.350;2024-03-06T09:41:45;20.50;;;13.50;;
55423;SDS011;41294;42.666;23.350;2024-03-06T09:44:21;18.92;;;11.48;;
55423;SDS011;41294;42.666;23.350;2024-03-06T09:46:47;17.00;;;12.70;;
55423;SDS011;41294;42.666;23.350;2024-03-06T09:49:18;15.45;;;13.20;;
55423;SDS011;41294;42.666;23.350;2024-03-06T09:51:47;16.35;;;11.65;;
55423;SDS011;41294;42.666;23.350;2024-03-06T09:54:19;11.40;;;8.65;;
55423;SDS011;41294;42.666;23.350;2024-03-06T09:56:46;10.55;;;9.43;;
55423;SDS011;41294;42.666;23.350;2024-03-06T09:59:12;15.75;;;9.82;;
55423;SDS011;41294;42.666;23.350;2024-03-06T10:01:40;16.38;;;10.23;;
55423;SDS011;41294;42.666;23.350;2024-03-06T10:04:26;13.32;;;9.75;;
55423;SDS011;41294;42.666;23.350;2024-03-06T10:06:54;12.82;;;9.52;;
55423;SDS011;41294;42.666;23.350;2024-03-06T10:09:21;13.38;;;10.63;;
55423;SDS011;41294;42.666;23.350;2024-03-06T10:11:47;12.98;;;10.20;;
55423;SDS011;41294;42.666;23.350;2024-03-06T10:14:13;16.25;;;9.45;;
55423;SDS011;41294;42.666;23.350;2024-03-06T10:16:56;14.73;;;10.32;;
55423;SDS011;41294;42.666;23.350;2024-03-06T10:19:23;14.23;;;10.15;;
55423;SDS011;41294;42.666;23.350;2024-03-06T10:21:52;12.70;;;9.70;;
55423;SDS011;41294;42.666;23.350;2024-03-06T10:24:22;12.15;;;10.18;;
55423;SDS011;41294;42.666;23.350;2024-03-06T10:26:52;13.02;;;9.25;;
55423;SDS011;41294;42.666;23.350;2024-03-06T10:29:20;12.27;;;9.57;;
55423;SDS011;41294;42.666;23.350;2024-03-06T10:31:53;12.88;;;9.20;;
55423;SDS011;41294;42.666;23.350;2024-03-06T10:34:21;10.48;;;7.93;;
55423;SDS011;41294;42.666;23.350;2024-03-06T10:36:57;7.53;;;6.38;;
55423;SDS011;41294;42.666;23.350;2024-03-06T10:39:29;11.45;;;7.47;;
55423;SDS011;41294;42.666;23.350;2024-03-06T10:41:56;7.28;;;6.35;;
55423;SDS011;41294;42.666;23.350;2024-03-06T10:44:26;10.95;;;8.70;;
55423;SDS011;41294;42.666;23.350;2024-03-06T10:46:56;11.57;;;7.60;;
55423;SDS011;41294;42.666;23.350;2024-03-06T10:49:25;7.78;;;7.00;;
55423;SDS011;41294;42.666;23.350;2024-03-06T10:51:53;10.20;;;6.97;;
55423;SDS011;41294;42.666;23.350;2024-03-06T10:54:23;7.97;;;6.78;;
55423;SDS011;41294;42.666;23.350;2024-03-06T10:56:52;8.30;;;7.15;;
55423;SDS011;41294;42.666;23.350;2024-03-06T10:59:19;9.73;;;7.30;;
55423;SDS011;41294;42.666;23.350;2024-03-06T11:01:46;11.43;;;7.05;;
55423;SDS011;41294;42.666;23.350;2024-03-06T11:04:12;8.20;;;7.03;;
55423;SDS011;41294;42.666;23.350;2024-03-06T11:06:38;10.65;;;8.35;;
55423;SDS011;41294;42.666;23.350;2024-03-06T11:09:04;11.40;;;7.18;;
55423;SDS011;41294;42.666;23.350;2024-03-06T11:11:31;11.27;;;7.22;;
55423;SDS011;41294;42.666;23.350;2024-03-06T11:14:00;8.45;;;6.82;;
55423;SDS011;41294;42.666;23.350;2024-03-06T11:16:31;14.38;;;8.30;;
55423;SDS011;41294;42.666;23.350;2024-03-06T11:19:17;9.85;;;8.23;;
55423;SDS011;41294;42.666;23.350;2024-03-06T11:21:46;11.05;;;8.30;;
55423;SDS011;41294;42.666;23.350;2024-03-06T11:24:13;11.32;;;7.38;;
55423;SDS011;41294;42.666;23.350;2024-03-06T11:27:14;8.32;;;6.53;;
55423;SDS011;41294;42.666;23.350;2024-03-06T11:32:56;7.70;;;6.50;;
55423;SDS011;41294;42.666;23.350;2024-03-06T11:35:23;9.23;;;6.75;;
55423;SDS011;41294;42.666;23.350;2024-03-06T11:37:49;9.73;;;6.18;;
55423;SDS011;41294;42.666;23.350;2024-03-06T11:40:22;6.30;;;5.70;;
55423;SDS011;41294;42.666;23.350;2024-03-06T11:42:49;7.85;;;6.25;;
55423;SDS011;41294;42.666;23.350;2024-03-06T11:45:18;8.73;;;5.97;;
55423;SDS011;41294;42.666;23.350;2024-03-06T11:50:24;7.72;;;5.68;;
55423;SDS011;41294;42.666;23.350;2024-03-06T11:52:51;10.55;;;6.38;;
55423;SDS011;41294;42.666;23.350;2024-03-06T11:55:16;8.45;;;6.13;;
55423;SDS011;41294;42.666;23.350;2024-03-06T11:57:42;9.02;;;7.35;;
55423;SDS011;41294;42.666;23.350;2024-03-06T12:00:08;10.70;;;7.18;;
55423;SDS011;41294;42.666;23.350;2024-03-06T12:02:36;8.95;;;7.43;;
55423;SDS011;41294;42.666;23.350;2024-03-06T12:05:02;10.77;;;7.78;;
55423;SDS011;41294;42.666;23.350;2024-03-06T12:07:28;11.05;;;8.38;;
55423;SDS011;41294;42.666;23.350;2024-03-06T12:09:53;9.93;;;7.70;;
55423;SDS011;41294;42.666;23.350;2024-03-06T12:12:19;9.30;;;7.20;;
55423;SDS011;41294;42.666;23.350;2024-03-06T12:14:55;9.77;;;7.50;;
55423;SDS011;41294;42.666;23.350;2024-03-06T12:17:29;12.82;;;7.43;;
55423;SDS011;41294;42.666;23.350;2024-03-06T12:19:55;8.50;;;7.60;;
55423;SDS011;41294;42.666;23.350;2024-03-06T12:22:24;12.53;;;7.80;;
55423;SDS011;41294;42.666;23.350;2024-03-06T12:25:00;11.23;;;7.70;;
55423;SDS011;41294;42.666;23.350;2024-03-06T12:27:26;9.83;;;7.40;;
55423;SDS011;41294;42.666;23.350;2024-03-06T12:29:52;12.53;;;7.23;;
55423;SDS011;41294;42.666;23.350;2024-03-06T12:32:18;10.40;;;6.93;;
55423;SDS011;41294;42.666;23.350;2024-03-06T12:34:43;8.20;;;6.90;;
55423;SDS011;41294;42.666;23.350;2024-03-06T12:37:09;9.53;;;6.70;;
55423;SDS011;41294;42.666;23.350;2024-03-06T12:39:37;10.03;;;7.80;;
55423;SDS011;41294;42.666;23.350;2024-03-06T12:42:03;10.10;;;7.30;;
55423;SDS011;41294;42.666;23.350;2024-03-06T12:44:28;12.33;;;7.40;;
55423;SDS011;41294;42.666;23.350;2024-03-06T12:46:54;8.93;;;6.97;;
55423;SDS011;41294;42.666;23.350;2024-03-06T12:49:19;8.93;;;6.40;;
55423;SDS011;41294;42.666;23.350;2024-03-06T12:51:45;11.03;;;6.70;;
55423;SDS011;41294;42.666;23.350;2024-03-06T12:54:10;7.80;;;6.57;;
55423;SDS011;41294;42.666;23.350;2024-03-06T12:56:36;8.30;;;6.57;;
55423;SDS011;41294;42.666;23.350;2024-03-06T12:59:01;9.20;;;7.37;;
55423;SDS011;41294;42.666;23.350;2024-03-06T13:01:27;11.67;;;6.60;;
55423;SDS011;41294;42.666;23.350;2024-03-06T13:03:53;9.23;;;7.13;;
55423;SDS011;41294;42.666;23.350;2024-03-06T13:06:18;9.93;;;7.37;;
55423;SDS011;41294;42.666;23.350;2024-03-06T13:08:44;10.80;;;7.47;;
55423;SDS011;41294;42.666;23.350;2024-03-06T13:11:09;8.13;;;6.67;;
55423;SDS011;41294;42.666;23.350;2024-03-06T13:13:35;6.53;;;5.83;;
55423;SDS011;41294;42.666;23.350;2024-03-06T13:16:00;7.90;;;6.10;;
55423;SDS011;41294;42.666;23.350;2024-03-06T13:18:26;11.00;;;5.53;;
55423;SDS011;41294;42.666;23.350;2024-03-06T13:20:51;8.27;;;5.90;;
55423;SDS011;41294;42.666;23.350;2024-03-06T13:23:17;8.50;;;5.23;;
55423;SDS011;41294;42.666;23.350;2024-03-06T13:25:43;7.37;;;6.13;;
55423;SDS011;41294;42.666;23.350;2024-03-06T13:28:12;6.97;;;5.07;;
55423;SDS011;41294;42.666;23.350;2024-03-06T13:30:37;7.20;;;4.50;;
55423;SDS011;41294;42.666;23.350;2024-03-06T13:33:04;5.80;;;4.87;;
55423;SDS011;41294;42.666;23.350;2024-03-06T13:35:30;6.43;;;4.80;;
55423;SDS011;41294;42.666;23.350;2024-03-06T13:37:55;8.73;;;5.03;;
55423;SDS011;41294;42.666;23.350;2024-03-06T13:40:21;6.00;;;5.20;;
55423;SDS011;41294;42.666;23.350;2024-03-06T13:42:47;7.30;;;5.07;;
55423;SDS011;41294;42.666;23.350;2024-03-06T13:45:13;7.03;;;5.00;;
55423;SDS011;41294;42.666;23.350;2024-03-06T13:47:39;8.53;;;5.17;;
55423;SDS011;41294;42.666;23.350;2024-03-06T13:50:07;8.37;;;5.70;;
55423;SDS011;41294;42.666;23.350;2024-03-06T13:52:34;7.10;;;5.27;;
55423;SDS011;41294;42.666;23.350;2024-03-06T13:54:59;7.13;;;4.93;;
55423;SDS011;41294;42.666;23.350;2024-03-06T13:57:29;9.80;;;6.33;;
55423;SDS011;41294;42.666;23.350;2024-03-06T14:00:03;9.87;;;6.40;;
55423;SDS011;41294;42.666;23.350;2024-03-06T14:02:31;8.53;;;5.00;;
55423;SDS011;41294;42.666;23.350;2024-03-06T14:04:56;6.50;;;5.53;;
55423;SDS011;41294;42.666;23.350;2024-03-06T14:07:22;7.53;;;5.47;;
55423;SDS011;41294;42.666;23.350;2024-03-06T14:09:48;8.40;;;5.37;;
55423;SDS011;41294;42.666;23.350;2024-03-06T14:12:15;7.37;;;5.00;;
55423;SDS011;41294;42.666;23.350;2024-03-06T14:14:41;6.50;;;5.30;;
55423;SDS011;41294;42.666;23.350;2024-03-06T14:17:06;7.60;;;5.27;;